createdAt,value
2022-09-20T00:00:43.032Z,84.13
2022-09-20T00:03:46.550Z,84.75
2022-09-20T00:06:49.652Z,83.94
2022-09-20T00:09:51.783Z,83.94
2022-09-20T00:12:53.975Z,83.67
2022-09-20T00:15:56.596Z,83.33
2022-09-20T00:19:01.287Z,83.51
2022-09-20T00:22:03.433Z,84.32
2022-09-20T00:25:06.232Z,84.85
2022-09-20T00:28:09.484Z,84.16
2022-09-20T00:31:12.069Z,84.53
2022-09-20T00:34:32.766Z,84.45
2022-09-20T00:37:35.773Z,85.40
2022-09-20T00:40:37.964Z,86.72
2022-09-20T00:43:43.125Z,85.61
2022-09-20T00:46:45.935Z,86.03
2022-09-20T00:49:49.952Z,87.88
2022-09-20T00:53:02.263Z,87.57
2022-09-20T00:56:11.963Z,87.54
2022-09-20T00:59:31.417Z,87.84
2022-09-20T01:02:37.412Z,89.07
2022-09-20T01:05:41.129Z,86.90
2022-09-20T01:08:48.248Z,85.98
2022-09-20T01:11:52.017Z,86.07
2022-09-20T01:14:56.618Z,84.86
2022-09-20T01:18:07.611Z,85.78
2022-09-20T01:21:10.491Z,86.55
2022-09-20T01:24:40.073Z,87.99
2022-09-20T01:27:53.747Z,87.87
2022-09-20T01:31:07.992Z,87.99
2022-09-20T01:34:37.514Z,87.93
2022-09-20T01:38:05.289Z,87.70
2022-09-20T01:41:12.651Z,86.62
2022-09-20T01:44:30.173Z,87.06
2022-09-20T01:47:52.221Z,87.09
2022-09-20T01:51:31.769Z,85.47
2022-09-20T01:54:45.831Z,85.67
2022-09-20T01:57:59.875Z,85.26
2022-09-20T02:01:34.327Z,85.50
2022-09-20T02:05:13.277Z,86.08
2022-09-20T02:08:44.115Z,87.47
2022-09-20T02:12:14.171Z,87.48
2022-09-20T02:15:53.955Z,85.22
2022-09-20T02:19:17.076Z,84.82
2022-09-20T02:22:56.281Z,85.34
2022-09-20T02:26:32.228Z,86.13
2022-09-20T02:29:52.596Z,86.80
2022-09-20T02:33:16.228Z,87.11
2022-09-20T02:36:21.180Z,87.16
2022-09-20T02:39:40.874Z,86.23
2022-09-20T02:42:55.168Z,86.76
2022-09-20T02:46:17.172Z,85.79
2022-09-20T02:49:41.094Z,85.79
2022-09-20T02:53:17.567Z,84.20
2022-09-20T02:56:42.507Z,85.57
2022-09-20T02:59:53.153Z,87.50
2022-09-20T03:03:10.258Z,88.22
2022-09-20T03:06:44.651Z,88.45
2022-09-20T03:09:56.989Z,88.28
2022-09-20T03:13:01.793Z,88.50
2022-09-20T03:16:17.015Z,88.17
2022-09-20T03:19:37.880Z,89.04
2022-09-20T03:23:01.907Z,89.92
2022-09-20T03:26:54.860Z,90.24
2022-09-20T03:30:06.561Z,89.47
2022-09-20T03:33:23.984Z,88.71
2022-09-20T03:37:02.959Z,88.48
2022-09-20T03:40:23.541Z,88.33
2022-09-20T03:43:53.487Z,87.95
2022-09-20T03:47:31.788Z,87.31
2022-09-20T03:50:55.258Z,86.10
2022-09-20T03:54:24.739Z,86.73
2022-09-20T03:57:52.702Z,86.11
2022-09-20T04:01:16.550Z,85.96
2022-09-20T04:04:42.979Z,86.51
2022-09-20T04:08:01.108Z,86.19
2022-09-20T04:11:20.329Z,86.13
2022-09-20T04:14:32.951Z,85.57
2022-09-20T04:18:04.883Z,85.50
2022-09-20T04:21:23.664Z,85.22
2022-09-20T04:24:47.975Z,85.26
2022-09-20T04:28:16.488Z,86.14
2022-09-20T04:31:30.540Z,84.14
2022-09-20T04:34:57.042Z,84.71
2022-09-20T04:38:05.589Z,84.89
2022-09-20T04:41:41.427Z,84.79
2022-09-20T04:45:21.938Z,83.56
2022-09-20T04:48:32.781Z,83.73
2022-09-20T04:52:00.751Z,83.66
2022-09-20T04:55:36.888Z,83.84
2022-09-20T04:58:59.888Z,83.18
2022-09-20T05:02:28.929Z,82.38
2022-09-20T05:05:46.251Z,82.04
2022-09-20T05:09:14.627Z,81.34
2022-09-20T05:12:19.631Z,81.76
2022-09-20T05:15:52.908Z,81.69
2022-09-20T05:19:33.902Z,80.71
2022-09-20T05:22:51.284Z,81.04
2022-09-20T05:25:56.493Z,80.42
2022-09-20T05:29:18.882Z,80.44
2022-09-20T05:32:55.707Z,79.40
2022-09-20T05:36:34.598Z,78.27
2022-09-20T05:40:06.452Z,76.56
2022-09-20T05:43:20.335Z,76.26
2022-09-20T05:46:48.915Z,75.98
2022-09-20T05:50:28.607Z,74.60
2022-09-20T05:53:49.594Z,73.30
2022-09-20T05:57:09.309Z,72.47
2022-09-20T06:00:20.634Z,70.65
2022-09-20T06:04:00.459Z,70.21
2022-09-20T06:07:25.439Z,69.44
2022-09-20T06:10:39.923Z,68.50
2022-09-20T06:13:52.504Z,65.94
2022-09-20T06:17:27.082Z,64.51
2022-09-20T06:20:54.920Z,63.72
2022-09-20T06:24:02.657Z,63.48
2022-09-20T06:27:16.248Z,61.81
2022-09-20T06:30:25.269Z,60.90
2022-09-20T06:33:29.058Z,59.82
2022-09-20T06:36:52.780Z,59.31
2022-09-20T06:40:38.381Z,58.35
2022-09-20T06:43:41.623Z,56.54
2022-09-20T06:46:46.194Z,56.42
2022-09-20T06:49:51.042Z,56.13
2022-09-20T06:52:56.659Z,56.10
2022-09-20T06:56:00.679Z,55.16
2022-09-20T06:59:11.453Z,53.24
2022-09-20T07:02:13.692Z,52.91
2022-09-20T07:05:28.778Z,52.00
2022-09-20T07:08:31.115Z,51.90
2022-09-20T07:11:36.311Z,51.79
2022-09-20T07:14:39.399Z,51.32
2022-09-20T07:17:48.397Z,51.85
2022-09-20T07:20:50.652Z,50.96
2022-09-20T07:23:54.062Z,49.70
2022-09-20T07:27:00.072Z,49.72
2022-09-20T07:30:02.831Z,50.33
2022-09-20T07:33:05.121Z,50.27
2022-09-20T07:36:07.501Z,50.74
2022-09-20T07:39:09.812Z,50.20
2022-09-20T07:42:13.048Z,49.20
2022-09-20T07:45:15.558Z,50.95
2022-09-20T07:48:18.313Z,51.39
2022-09-20T07:51:20.515Z,53.63
2022-09-20T07:54:27.229Z,56.23
2022-09-20T07:57:31.311Z,56.65
2022-09-20T08:00:33.528Z,57.95
2022-09-20T08:03:39.541Z,58.97
2022-09-20T08:06:46.366Z,58.77
2022-09-20T08:09:48.905Z,58.85
2022-09-20T08:16:14.872Z,60.75
2022-09-20T08:19:22.902Z,60.70
2022-09-20T08:22:25.269Z,60.30
2022-09-20T08:25:30.321Z,59.28
2022-09-20T08:28:35.501Z,60.51
2022-09-20T08:31:42.498Z,59.60
2022-09-20T08:34:49.387Z,61.11
2022-09-20T08:39:56.009Z,60.91
2022-09-20T08:41:26.346Z,59.93
2022-09-20T08:44:59.421Z,57.74
2022-09-20T08:48:05.671Z,53.72
2022-09-20T08:51:13.171Z,52.70
2022-09-20T08:54:16.258Z,52.32
2022-09-20T08:57:20.638Z,50.99
2022-09-20T09:00:32.655Z,48.90
2022-09-20T09:03:34.869Z,49.28
2022-09-20T09:06:37.282Z,49.36
2022-09-20T09:09:43.868Z,49.11
2022-09-20T09:12:48.817Z,51.78
2022-09-20T09:15:58.836Z,51.95
2022-09-20T09:19:34.339Z,52.86
2022-09-20T09:22:42.395Z,53.37
2022-09-20T09:25:44.708Z,56.11
2022-09-20T09:28:48.477Z,54.32
2022-09-20T09:31:57.067Z,54.66
2022-09-20T09:35:23.523Z,54.41
2022-09-20T09:38:31.708Z,55.62
2022-09-20T09:41:36.933Z,56.39
2022-09-20T09:44:41.400Z,55.49
2022-09-20T09:47:45.919Z,54.40
2022-09-20T09:50:48.752Z,53.39
2022-09-20T09:53:52.056Z,55.06
2022-09-20T09:57:32.170Z,53.71
2022-09-20T10:00:43.229Z,54.88
2022-09-20T10:04:30.716Z,53.94
2022-09-20T10:07:43.110Z,51.38
2022-09-20T10:11:38.772Z,53.25
2022-09-20T10:15:28.912Z,52.61
2022-09-20T10:18:53.351Z,50.55
2022-09-20T10:22:06.970Z,49.15
2022-09-20T10:25:27.909Z,44.57
2022-09-20T10:29:07.994Z,41.00
2022-09-20T10:32:42.844Z,47.32
2022-09-20T10:36:08.308Z,52.08
2022-09-20T10:39:13.405Z,55.72
2022-09-20T10:43:00.142Z,58.29
2022-09-20T10:46:32.450Z,59.57
2022-09-20T10:49:50.769Z,62.22
2022-09-20T10:53:27.849Z,62.17
2022-09-20T10:56:50.921Z,59.91
2022-09-20T11:00:05.021Z,53.12
2022-09-20T11:03:29.061Z,46.15
2022-09-20T11:06:50.896Z,42.28
2022-09-20T11:09:59.891Z,47.11
2022-09-20T11:13:32.341Z,41.97
2022-09-20T11:16:34.584Z,41.02
2022-09-20T11:19:56.483Z,36.63
2022-09-20T11:23:03.987Z,36.79
2022-09-20T11:26:21.442Z,34.34
2022-09-20T11:29:46.257Z,33.90
2022-09-20T11:33:05.876Z,36.12
2022-09-20T11:36:15.659Z,36.96
2022-09-20T11:39:33.973Z,34.73
2022-09-20T11:42:41.718Z,33.33
2022-09-20T11:45:47.963Z,32.08
2022-09-20T11:49:02.959Z,33.94
2022-09-20T11:52:10.912Z,31.63
2022-09-20T11:55:19.104Z,34.63
2022-09-20T11:58:28.499Z,36.29
2022-09-20T12:01:40.524Z,46.13
2022-09-20T12:04:53.235Z,48.25
2022-09-20T12:07:58.366Z,51.71
2022-09-20T12:11:06.889Z,51.90
2022-09-20T12:14:23.668Z,49.25
2022-09-20T12:18:09.039Z,47.91
2022-09-20T12:21:17.382Z,43.97
2022-09-20T12:24:21.435Z,46.50
2022-09-20T12:27:29.464Z,43.78
2022-09-20T12:30:33.876Z,46.49
2022-09-20T12:33:56.875Z,45.80
2022-09-20T12:36:59.988Z,44.94
2022-09-20T12:40:02.250Z,44.03
2022-09-20T12:43:04.592Z,47.80
2022-09-20T12:46:11.825Z,48.42
2022-09-20T12:49:48.232Z,40.13
2022-09-20T12:52:57.601Z,37.36
2022-09-20T12:56:03.007Z,35.64
2022-09-20T12:59:18.918Z,34.04
2022-09-20T13:02:52.372Z,33.30
2022-09-20T13:06:06.811Z,31.48
2022-09-20T13:09:10.444Z,31.65
2022-09-20T13:12:12.780Z,31.62
2022-09-20T13:15:19.878Z,35.36
2022-09-20T13:18:25.105Z,38.87
2022-09-20T13:21:28.290Z,42.24
2022-09-20T13:24:41.715Z,45.33
2022-09-20T13:28:01.935Z,47.08
2022-09-20T13:31:22.287Z,47.94
2022-09-20T13:34:25.939Z,42.82
2022-09-20T13:37:28.149Z,39.36
2022-09-20T13:40:45.204Z,35.32
2022-09-20T13:43:50.010Z,35.13
2022-09-20T13:46:52.181Z,37.32
2022-09-20T13:50:19.158Z,42.06
2022-09-20T13:53:40.637Z,38.88
2022-09-20T13:56:44.163Z,36.41
2022-09-20T13:59:47.011Z,44.80
2022-09-20T14:02:50.436Z,48.53
2022-09-20T14:06:01.934Z,43.89
2022-09-20T14:09:11.011Z,41.41
2022-09-20T14:12:14.379Z,45.29
2022-09-20T14:15:16.847Z,47.16
2022-09-20T14:18:22.194Z,40.41
2022-09-20T14:21:27.233Z,37.12
2022-09-20T14:24:35.611Z,39.86
2022-09-20T14:27:37.937Z,38.45
2022-09-20T14:30:40.196Z,39.66
2022-09-20T14:33:45.825Z,42.66
2022-09-20T14:36:49.923Z,43.82
2022-09-20T14:40:16.079Z,38.87
2022-09-20T14:43:26.131Z,38.24
2022-09-20T14:46:35.943Z,36.79
2022-09-20T14:49:42.993Z,37.80
2022-09-20T14:52:45.408Z,38.40
2022-09-20T14:55:59.652Z,41.40
2022-09-20T14:59:25.289Z,44.32
2022-09-20T15:02:27.510Z,47.51
2022-09-20T15:05:30.066Z,50.25
2022-09-20T15:08:34.846Z,52.69
2022-09-20T15:11:43.912Z,52.55
2022-09-20T15:14:47.235Z,54.71
2022-09-20T15:17:49.400Z,54.86
2022-09-20T15:20:52.444Z,56.64
2022-09-20T15:23:54.676Z,56.36
2022-09-20T15:26:56.923Z,57.89
2022-09-20T15:29:59.087Z,56.96
2022-09-20T15:33:03.211Z,54.71
2022-09-20T15:36:06.119Z,56.87
2022-09-20T15:39:08.917Z,56.67
2022-09-20T15:42:11.097Z,58.23
2022-09-20T15:45:13.405Z,59.38
2022-09-20T15:48:20.817Z,58.62
2022-09-20T15:51:23.113Z,59.27
2022-09-20T15:54:26.660Z,59.41
2022-09-20T15:57:29.016Z,58.89
2022-09-20T16:00:32.554Z,56.19
2022-09-20T16:03:35.859Z,53.93
2022-09-20T16:06:46.756Z,54.27
2022-09-20T16:09:48.917Z,57.78
2022-09-20T16:12:51.083Z,60.51
2022-09-20T16:15:56.625Z,61.39
2022-09-20T16:19:17.437Z,62.39
2022-09-20T16:22:20.805Z,63.35
2022-09-20T16:25:22.964Z,66.92
2022-09-20T16:28:25.149Z,67.21
2022-09-20T16:31:37.329Z,68.67
2022-09-20T16:34:39.530Z,68.42
2022-09-20T16:37:42.137Z,67.38
2022-09-20T16:40:48.660Z,68.38
2022-09-20T16:43:51.612Z,68.24
2022-09-20T16:46:53.875Z,68.08
2022-09-20T16:49:56.380Z,69.16
2022-09-20T16:52:58.722Z,69.45
2022-09-20T16:56:01.480Z,69.44
2022-09-20T16:59:05.898Z,70.39
2022-09-20T17:02:11.223Z,70.98
2022-09-20T17:05:14.368Z,71.59
2022-09-20T17:08:16.515Z,71.26
2022-09-20T17:11:22.734Z,71.38
2022-09-20T17:14:25.748Z,71.03
2022-09-20T17:17:27.919Z,70.98
2022-09-20T17:20:30.133Z,70.14
2022-09-20T17:23:33.562Z,70.55
2022-09-20T17:26:45.103Z,71.51
2022-09-20T17:29:47.630Z,71.43
2022-09-20T17:32:50.530Z,72.20
2022-09-20T17:35:55.707Z,71.01
2022-09-20T17:39:03.939Z,70.75
2022-09-20T17:42:07.021Z,71.52
2022-09-20T17:45:09.583Z,71.32
2022-09-20T17:48:11.709Z,70.90
2022-09-20T17:51:13.863Z,71.70
2022-09-20T17:54:16.532Z,72.05
2022-09-20T17:57:18.680Z,72.48
2022-09-20T18:00:20.862Z,73.02
2022-09-20T18:03:24.091Z,73.59
2022-09-20T18:06:35.420Z,73.92
2022-09-20T18:09:37.600Z,74.38
2022-09-20T18:12:39.763Z,74.83
2022-09-20T18:15:45.572Z,74.96
2022-09-20T18:18:49.660Z,74.76
2022-09-20T18:21:51.945Z,74.87
2022-09-20T18:24:54.707Z,76.62
2022-09-20T18:27:56.892Z,77.96
2022-09-20T18:31:03.043Z,77.55
2022-09-20T18:34:07.553Z,77.58
2022-09-20T18:37:14.894Z,76.79
2022-09-20T18:40:17.287Z,77.15
2022-09-20T18:43:19.581Z,77.68
2022-09-20T18:46:26.919Z,77.41
2022-09-20T18:49:30.572Z,78.17
2022-09-20T18:52:33.650Z,77.54
2022-09-20T18:55:37.318Z,77.59
2022-09-20T18:58:40.022Z,77.69
2022-09-20T19:01:53.311Z,78.26
2022-09-20T19:05:08.399Z,78.97
2022-09-20T19:08:25.652Z,79.55
2022-09-20T19:11:35.231Z,80.07
2022-09-20T19:14:54.554Z,80.56
2022-09-20T19:18:22.970Z,80.60
2022-09-20T19:21:39.463Z,80.95
2022-09-20T19:25:07.526Z,81.24
2022-09-20T19:28:15.287Z,81.25
2022-09-20T19:31:31.122Z,81.30
2022-09-20T19:34:33.691Z,81.49
2022-09-20T19:37:39.109Z,81.40
2022-09-20T19:41:10.856Z,81.23
2022-09-20T19:44:34.555Z,81.67
2022-09-20T19:48:03.129Z,82.00
2022-09-20T19:51:10.240Z,82.13
2022-09-20T19:54:14.907Z,81.84
2022-09-20T19:57:29.091Z,82.66
2022-09-20T20:00:31.748Z,82.19
2022-09-20T20:03:34.332Z,82.66
2022-09-20T20:06:55.727Z,82.41
2022-09-20T20:10:33.595Z,83.86
2022-09-20T20:14:05.129Z,83.73
2022-09-20T20:17:22.224Z,83.71
2022-09-20T20:20:31.258Z,84.62
2022-09-20T20:24:21.307Z,84.45
2022-09-20T20:27:25.986Z,84.38
2022-09-20T20:30:28.184Z,83.96
2022-09-20T20:33:32.908Z,83.95
2022-09-20T20:36:35.416Z,83.88
2022-09-20T20:39:37.587Z,83.57
2022-09-20T20:42:47.876Z,83.86
2022-09-20T20:45:51.028Z,83.99
2022-09-20T20:48:53.397Z,84.30
2022-09-20T20:51:56.533Z,84.09
2022-09-20T20:55:00.130Z,83.72
2022-09-20T20:58:02.375Z,83.86
2022-09-20T21:01:07.576Z,84.24
2022-09-20T21:04:11.288Z,84.82
2022-09-20T21:07:13.460Z,84.70
2022-09-20T21:10:15.629Z,85.21
2022-09-20T21:13:17.784Z,85.96
2022-09-20T21:16:23.012Z,86.20
2022-09-20T21:19:25.752Z,86.22
2022-09-20T21:22:29.257Z,86.71
2022-09-20T21:25:31.406Z,86.93
2022-09-20T21:28:37.869Z,87.24
2022-09-20T21:31:42.120Z,87.50
2022-09-20T21:34:44.291Z,87.55
2022-09-20T21:37:46.451Z,87.47
2022-09-20T21:40:48.611Z,88.03
2022-09-20T21:43:55.486Z,87.58
2022-09-20T21:46:57.664Z,86.98
2022-09-20T21:50:00.220Z,87.40
2022-09-20T21:53:02.416Z,87.86
2022-09-20T21:56:07.754Z,87.31
2022-09-20T21:59:10.069Z,86.89
2022-09-20T22:02:12.259Z,86.79
2022-09-20T22:05:14.557Z,86.95
2022-09-20T22:08:16.828Z,86.48
2022-09-20T22:11:20.725Z,86.35
2022-09-20T22:14:23.222Z,86.04
2022-09-20T22:17:27.033Z,85.83
2022-09-20T22:20:29.185Z,85.45
2022-09-20T22:23:31.370Z,85.40
2022-09-20T22:26:36.266Z,85.21
2022-09-20T22:29:38.435Z,84.53
2022-09-20T22:32:43.022Z,84.60
2022-09-20T22:35:45.538Z,84.59
2022-09-20T22:38:48.085Z,85.02
2022-09-20T22:41:50.769Z,84.39
2022-09-20T22:44:59.640Z,84.82
2022-09-20T22:48:02.034Z,84.90
2022-09-20T22:51:21.049Z,84.72
2022-09-20T22:54:23.214Z,84.54
2022-09-20T22:57:25.416Z,84.22
2022-09-20T23:00:27.661Z,84.76
2022-09-20T23:03:29.885Z,84.60
2022-09-20T23:06:38.039Z,84.94
2022-09-20T23:09:40.202Z,85.28
2022-09-20T23:12:42.368Z,85.12
2022-09-20T23:15:44.540Z,85.09
2022-09-20T23:18:48.213Z,85.59
2022-09-20T23:21:50.440Z,85.82
2022-09-20T23:24:52.599Z,86.21
2022-09-20T23:27:54.762Z,86.59
2022-09-20T23:31:02.748Z,86.56
2022-09-20T23:34:07.825Z,86.54
2022-09-20T23:37:10.550Z,87.09
2022-09-20T23:40:12.808Z,87.45
2022-09-20T23:43:15.230Z,87.74
2022-09-20T23:46:18.717Z,87.67
2022-09-20T23:49:20.899Z,88.08
2022-09-20T23:52:23.084Z,88.15
2022-09-20T23:55:25.649Z,88.05
2022-09-20T23:58:27.848Z,87.62
